sensor_id;sensor_type;location;lat;lon;timestamp;temperature;humidity
64997;SHT31;51545;51.568;6.998;2022-10-31T00:00:57;13.91;96.04
64997;SHT31;51545;51.568;6.998;2022-10-31T00:03:23;13.83;96.20
64997;SHT31;51545;51.568;6.998;2022-10-31T00:05:49;13.86;96.22
64997;SHT31;51545;51.568;6.998;2022-10-31T00:08:15;13.81;96.27
64997;SHT31;51545;51.568;6.998;2022-10-31T00:10:42;13.78;96.25
64997;SHT31;51545;51.568;6.998;2022-10-31T00:13:09;13.69;96.11
64997;SHT31;51545;51.568;6.998;2022-10-31T00:15:36;13.67;96.43
64997;SHT31;51545;51.568;6.998;2022-10-31T00:18:03;13.71;96.34
64997;SHT31;51545;51.568;6.998;2022-10-31T00:20:30;13.73;96.17
64997;SHT31;51545;51.568;6.998;2022-10-31T00:23:02;13.69;95.88
64997;SHT31;51545;51.568;6.998;2022-10-31T00:25:28;13.56;95.64
64997;SHT31;51545;51.568;6.998;2022-10-31T00:27:57;13.50;96.02
64997;SHT31;51545;51.568;6.998;2022-10-31T00:30:23;13.47;96.04
64997;SHT31;51545;51.568;6.998;2022-10-31T00:32:48;13.35;95.73
64997;SHT31;51545;51.568;6.998;2022-10-31T00:35:14;13.36;96.37
64997;SHT31;51545;51.568;6.998;2022-10-31T00:37:40;13.35;96.29
64997;SHT31;51545;51.568;6.998;2022-10-31T00:40:05;13.32;96.07
64997;SHT31;51545;51.568;6.998;2022-10-31T00:42:31;13.26;95.97
64997;SHT31;51545;51.568;6.998;2022-10-31T00:44:56;13.25;95.98
64997;SHT31;51545;51.568;6.998;2022-10-31T00:47:22;13.25;95.90
64997;SHT31;51545;51.568;6.998;2022-10-31T00:49:47;13.29;96.45
64997;SHT31;51545;51.568;6.998;2022-10-31T00:52:13;13.36;96.68
64997;SHT31;51545;51.568;6.998;2022-10-31T00:54:38;13.39;96.78
64997;SHT31;51545;51.568;6.998;2022-10-31T00:57:03;13.40;96.67
64997;SHT31;51545;51.568;6.998;2022-10-31T00:59:29;13.35;96.71
64997;SHT31;51545;51.568;6.998;2022-10-31T01:01:54;13.28;96.57
64997;SHT31;51545;51.568;6.998;2022-10-31T01:04:20;13.31;96.83
64997;SHT31;51545;51.568;6.998;2022-10-31T01:06:45;13.25;96.50
64997;SHT31;51545;51.568;6.998;2022-10-31T01:09:11;13.16;96.61
64997;SHT31;51545;51.568;6.998;2022-10-31T01:11:36;13.22;96.92
64997;SHT31;51545;51.568;6.998;2022-10-31T01:14:02;13.26;96.82
64997;SHT31;51545;51.568;6.998;2022-10-31T01:16:27;13.26;96.68
64997;SHT31;51545;51.568;6.998;2022-10-31T01:18:54;13.26;97.00
64997;SHT31;51545;51.568;6.998;2022-10-31T01:21:21;13.36;97.21
64997;SHT31;51545;51.568;6.998;2022-10-31T01:23:48;13.43;97.13
64997;SHT31;51545;51.568;6.998;2022-10-31T01:26:16;13.43;96.91
64997;SHT31;51545;51.568;6.998;2022-10-31T01:28:44;13.35;96.83
64997;SHT31;51545;51.568;6.998;2022-10-31T01:31:15;13.29;96.75
64997;SHT31;51545;51.568;6.998;2022-10-31T01:33:41;13.23;96.75
64997;SHT31;51545;51.568;6.998;2022-10-31T01:36:11;13.10;96.83
64997;SHT31;51545;51.568;6.998;2022-10-31T01:38:42;13.12;97.14
64997;SHT31;51545;51.568;6.998;2022-10-31T01:41:08;13.12;97.13
64997;SHT31;51545;51.568;6.998;2022-10-31T01:43:43;13.11;96.93
64997;SHT31;51545;51.568;6.998;2022-10-31T01:46:09;13.16;97.10
64997;SHT31;51545;51.568;6.998;2022-10-31T01:48:35;13.25;97.20
64997;SHT31;51545;51.568;6.998;2022-10-31T01:51:00;13.29;97.11
64997;SHT31;51545;51.568;6.998;2022-10-31T01:53:29;13.21;96.86
64997;SHT31;51545;51.568;6.998;2022-10-31T01:55:56;13.10;96.72
64997;SHT31;51545;51.568;6.998;2022-10-31T01:58:22;12.95;96.53
64997;SHT31;51545;51.568;6.998;2022-10-31T02:00:54;12.81;96.61
64997;SHT31;51545;51.568;6.998;2022-10-31T02:03:22;12.78;96.45
64997;SHT31;51545;51.568;6.998;2022-10-31T02:05:50;12.74;96.34
64997;SHT31;51545;51.568;6.998;2022-10-31T02:10:58;12.74;96.18
64997;SHT31;51545;51.568;6.998;2022-10-31T02:13:25;12.64;96.05
64997;SHT31;51545;51.568;6.998;2022-10-31T02:15:54;12.57;96.16
64997;SHT31;51545;51.568;6.998;2022-10-31T02:18:21;12.61;96.35
64997;SHT31;51545;51.568;6.998;2022-10-31T02:31:46;12.36;96.22
64997;SHT31;51545;51.568;6.998;2022-10-31T02:34:39;12.33;96.52
64997;SHT31;51545;51.568;6.998;2022-10-31T02:40:26;12.40;96.58
64997;SHT31;51545;51.568;6.998;2022-10-31T02:47:55;12.31;96.41
64997;SHT31;51545;51.568;6.998;2022-10-31T02:50:28;12.26;96.57
64997;SHT31;51545;51.568;6.998;2022-10-31T02:52:57;12.25;96.29
64997;SHT31;51545;51.568;6.998;2022-10-31T02:57:56;12.22;96.37
64997;SHT31;51545;51.568;6.998;2022-10-31T03:00:26;12.24;96.24
64997;SHT31;51545;51.568;6.998;2022-10-31T03:03:37;12.20;96.18
64997;SHT31;51545;51.568;6.998;2022-10-31T03:06:06;12.09;96.45
64997;SHT31;51545;51.568;6.998;2022-10-31T03:08:41;12.11;96.37
64997;SHT31;51545;51.568;6.998;2022-10-31T03:11:31;12.08;96.27
64997;SHT31;51545;51.568;6.998;2022-10-31T03:14:10;12.06;96.28
64997;SHT31;51545;51.568;6.998;2022-10-31T03:16:48;12.08;96.32
64997;SHT31;51545;51.568;6.998;2022-10-31T03:19:22;12.01;96.27
64997;SHT31;51545;51.568;6.998;2022-10-31T03:22:33;11.97;96.34
64997;SHT31;51545;51.568;6.998;2022-10-31T03:24:44;11.94;96.36
64997;SHT31;51545;51.568;6.998;2022-10-31T03:27:14;11.88;96.34
64997;SHT31;51545;51.568;6.998;2022-10-31T03:29:44;11.81;96.50
64997;SHT31;51545;51.568;6.998;2022-10-31T03:32:12;11.81;96.61
64997;SHT31;51545;51.568;6.998;2022-10-31T03:34:42;11.78;96.54
64997;SHT31;51545;51.568;6.998;2022-10-31T03:37:10;11.76;96.37
64997;SHT31;51545;51.568;6.998;2022-10-31T03:39:41;11.76;96.36
64997;SHT31;51545;51.568;6.998;2022-10-31T03:42:10;11.76;96.35
64997;SHT31;51545;51.568;6.998;2022-10-31T03:44:40;11.77;96.35
64997;SHT31;51545;51.568;6.998;2022-10-31T03:47:10;11.76;96.18
64997;SHT31;51545;51.568;6.998;2022-10-31T03:49:35;11.76;96.12
64997;SHT31;51545;51.568;6.998;2022-10-31T03:52:48;11.73;96.08
64997;SHT31;51545;51.568;6.998;2022-10-31T03:54:54;11.69;95.96
64997;SHT31;51545;51.568;6.998;2022-10-31T03:57:29;11.66;95.83
64997;SHT31;51545;51.568;6.998;2022-10-31T04:00:08;11.65;95.89
64997;SHT31;51545;51.568;6.998;2022-10-31T04:02:38;11.66;95.81
64997;SHT31;51545;51.568;6.998;2022-10-31T04:05:07;11.65;95.81
64997;SHT31;51545;51.568;6.998;2022-10-31T04:07:36;11.67;95.87
64997;SHT31;51545;51.568;6.998;2022-10-31T04:10:06;11.62;95.76
64997;SHT31;51545;51.568;6.998;2022-10-31T04:12:34;11.58;95.82
64997;SHT31;51545;51.568;6.998;2022-10-31T04:15:03;11.53;96.03
64997;SHT31;51545;51.568;6.998;2022-10-31T04:17:31;11.50;96.42
64997;SHT31;51545;51.568;6.998;2022-10-31T04:20:02;11.53;96.51
64997;SHT31;51545;51.568;6.998;2022-10-31T04:22:29;11.56;96.61
64997;SHT31;51545;51.568;6.998;2022-10-31T04:24:54;11.60;96.67
64997;SHT31;51545;51.568;6.998;2022-10-31T04:27:19;11.69;96.75
64997;SHT31;51545;51.568;6.998;2022-10-31T04:29:45;11.70;96.76
64997;SHT31;51545;51.568;6.998;2022-10-31T04:32:10;11.74;96.80
64997;SHT31;51545;51.568;6.998;2022-10-31T04:34:36;11.77;96.94
64997;SHT31;51545;51.568;6.998;2022-10-31T04:37:01;11.84;97.21
64997;SHT31;51545;51.568;6.998;2022-10-31T04:39:27;11.88;97.42
64997;SHT31;51545;51.568;6.998;2022-10-31T04:41:52;11.87;97.26
64997;SHT31;51545;51.568;6.998;2022-10-31T04:44:18;11.87;97.31
64997;SHT31;51545;51.568;6.998;2022-10-31T04:46:43;11.86;97.43
64997;SHT31;51545;51.568;6.998;2022-10-31T04:49:08;11.86;97.64
64997;SHT31;51545;51.568;6.998;2022-10-31T04:51:34;11.86;97.81
64997;SHT31;51545;51.568;6.998;2022-10-31T04:53:59;11.87;97.91
64997;SHT31;51545;51.568;6.998;2022-10-31T04:56:25;11.94;98.09
64997;SHT31;51545;51.568;6.998;2022-10-31T04:58:50;11.90;97.97
64997;SHT31;51545;51.568;6.998;2022-10-31T05:01:16;11.90;98.06
64997;SHT31;51545;51.568;6.998;2022-10-31T05:03:41;11.90;98.19
64997;SHT31;51545;51.568;6.998;2022-10-31T05:06:07;11.91;98.28
64997;SHT31;51545;51.568;6.998;2022-10-31T05:08:33;11.81;98.10
64997;SHT31;51545;51.568;6.998;2022-10-31T05:11:02;11.78;98.15
64997;SHT31;51545;51.568;6.998;2022-10-31T05:13:28;11.77;98.25
64997;SHT31;51545;51.568;6.998;2022-10-31T05:15:54;11.74;98.17
64997;SHT31;51545;51.568;6.998;2022-10-31T05:18:20;11.70;98.14
64997;SHT31;51545;51.568;6.998;2022-10-31T05:20:45;11.76;98.41
64997;SHT31;51545;51.568;6.998;2022-10-31T05:23:11;11.77;98.46
64997;SHT31;51545;51.568;6.998;2022-10-31T05:25:36;11.70;98.12
64997;SHT31;51545;51.568;6.998;2022-10-31T05:28:02;11.62;97.86
64997;SHT31;51545;51.568;6.998;2022-10-31T05:30:28;11.62;97.87
64997;SHT31;51545;51.568;6.998;2022-10-31T05:32:56;11.71;98.02
64997;SHT31;51545;51.568;6.998;2022-10-31T05:35:23;11.74;97.94
64997;SHT31;51545;51.568;6.998;2022-10-31T05:37:50;11.74;97.71
64997;SHT31;51545;51.568;6.998;2022-10-31T05:40:16;11.74;97.68
64997;SHT31;51545;51.568;6.998;2022-10-31T05:42:43;11.74;97.83
64997;SHT31;51545;51.568;6.998;2022-10-31T05:45:10;11.70;97.64
64997;SHT31;51545;51.568;6.998;2022-10-31T05:47:38;11.62;97.57
64997;SHT31;51545;51.568;6.998;2022-10-31T05:50:04;11.53;97.62
64997;SHT31;51545;51.568;6.998;2022-10-31T05:52:30;11.49;97.91
64997;SHT31;51545;51.568;6.998;2022-10-31T05:54:56;11.52;98.06
64997;SHT31;51545;51.568;6.998;2022-10-31T05:57:22;11.49;97.99
64997;SHT31;51545;51.568;6.998;2022-10-31T05:59:47;11.49;97.97
64997;SHT31;51545;51.568;6.998;2022-10-31T06:02:13;11.49;97.92
64997;SHT31;51545;51.568;6.998;2022-10-31T06:04:38;11.46;97.97
64997;SHT31;51545;51.568;6.998;2022-10-31T06:07:03;11.48;98.09
64997;SHT31;51545;51.568;6.998;2022-10-31T06:09:29;11.55;98.23
64997;SHT31;51545;51.568;6.998;2022-10-31T06:11:54;11.59;98.17
64997;SHT31;51545;51.568;6.998;2022-10-31T06:14:20;11.56;98.12
64997;SHT31;51545;51.568;6.998;2022-10-31T06:16:45;11.55;98.22
64997;SHT31;51545;51.568;6.998;2022-10-31T06:19:10;11.52;98.26
64997;SHT31;51545;51.568;6.998;2022-10-31T06:21:36;11.56;98.40
64997;SHT31;51545;51.568;6.998;2022-10-31T06:24:01;11.53;98.30
64997;SHT31;51545;51.568;6.998;2022-10-31T06:26:27;11.52;98.27
64997;SHT31;51545;51.568;6.998;2022-10-31T06:28:52;11.49;98.32
64997;SHT31;51545;51.568;6.998;2022-10-31T06:31:18;11.53;98.28
64997;SHT31;51545;51.568;6.998;2022-10-31T06:33:43;11.46;98.12
64997;SHT31;51545;51.568;6.998;2022-10-31T06:36:09;11.43;98.12
64997;SHT31;51545;51.568;6.998;2022-10-31T06:38:35;11.43;98.04
64997;SHT31;51545;51.568;6.998;2022-10-31T06:41:04;11.48;98.08
64997;SHT31;51545;51.568;6.998;2022-10-31T06:43:30;11.42;98.12
64997;SHT31;51545;51.568;6.998;2022-10-31T06:45:56;11.46;98.37
64997;SHT31;51545;51.568;6.998;2022-10-31T06:48:22;11.46;98.40
64997;SHT31;51545;51.568;6.998;2022-10-31T06:50:47;11.52;98.53
64997;SHT31;51545;51.568;6.998;2022-10-31T06:53:13;11.63;98.59
64997;SHT31;51545;51.568;6.998;2022-10-31T06:55:39;11.59;98.38
64997;SHT31;51545;51.568;6.998;2022-10-31T06:58:05;11.56;98.49
64997;SHT31;51545;51.568;6.998;2022-10-31T07:00:31;11.63;98.67
64997;SHT31;51545;51.568;6.998;2022-10-31T07:02:58;11.67;98.71
64997;SHT31;51545;51.568;6.998;2022-10-31T07:05:26;11.74;98.93
64997;SHT31;51545;51.568;6.998;2022-10-31T07:07:55;11.81;98.91
64997;SHT31;51545;51.568;6.998;2022-10-31T07:10:23;11.88;98.93
64997;SHT31;51545;51.568;6.998;2022-10-31T07:12:53;11.90;98.86
64997;SHT31;51545;51.568;6.998;2022-10-31T07:15:26;11.94;98.77
64997;SHT31;51545;51.568;6.998;2022-10-31T07:17:52;11.98;98.79
64997;SHT31;51545;51.568;6.998;2022-10-31T07:20:18;11.95;98.64
64997;SHT31;51545;51.568;6.998;2022-10-31T07:22:44;11.95;98.66
64997;SHT31;51545;51.568;6.998;2022-10-31T07:25:10;11.99;98.76
64997;SHT31;51545;51.568;6.998;2022-10-31T07:27:39;12.05;98.68
64997;SHT31;51545;51.568;6.998;2022-10-31T07:30:06;12.02;98.60
64997;SHT31;51545;51.568;6.998;2022-10-31T07:32:43;12.06;98.67
64997;SHT31;51545;51.568;6.998;2022-10-31T07:35:17;12.12;98.59
64997;SHT31;51545;51.568;6.998;2022-10-31T07:37:48;12.17;98.56
64997;SHT31;51545;51.568;6.998;2022-10-31T07:40:14;12.15;98.49
64997;SHT31;51545;51.568;6.998;2022-10-31T07:42:40;12.20;98.53
64997;SHT31;51545;51.568;6.998;2022-10-31T07:45:08;12.22;98.54
64997;SHT31;51545;51.568;6.998;2022-10-31T07:47:42;12.28;98.52
64997;SHT31;51545;51.568;6.998;2022-10-31T07:50:10;12.33;98.56
64997;SHT31;51545;51.568;6.998;2022-10-31T07:52:38;12.38;98.56
64997;SHT31;51545;51.568;6.998;2022-10-31T07:55:04;12.46;98.60
64997;SHT31;51545;51.568;6.998;2022-10-31T07:57:30;12.59;98.69
64997;SHT31;51545;51.568;6.998;2022-10-31T07:59:56;12.71;98.80
64997;SHT31;51545;51.568;6.998;2022-10-31T08:02:22;12.80;98.83
64997;SHT31;51545;51.568;6.998;2022-10-31T08:04:47;12.93;98.80
64997;SHT31;51545;51.568;6.998;2022-10-31T08:07:13;13.01;98.76
64997;SHT31;51545;51.568;6.998;2022-10-31T08:09:38;13.12;98.74
64997;SHT31;51545;51.568;6.998;2022-10-31T08:12:04;13.16;98.58
64997;SHT31;51545;51.568;6.998;2022-10-31T08:14:30;13.22;98.44
64997;SHT31;51545;51.568;6.998;2022-10-31T08:16:56;13.29;98.41
64997;SHT31;51545;51.568;6.998;2022-10-31T08:19:21;13.38;98.36
64997;SHT31;51545;51.568;6.998;2022-10-31T08:21:49;13.35;98.20
64997;SHT31;51545;51.568;6.998;2022-10-31T08:24:16;13.38;98.14
64997;SHT31;51545;51.568;6.998;2022-10-31T08:26:42;13.43;98.19
64997;SHT31;51545;51.568;6.998;2022-10-31T08:29:07;13.53;97.90
64997;SHT31;51545;51.568;6.998;2022-10-31T08:31:33;13.60;97.77
64997;SHT31;51545;51.568;6.998;2022-10-31T08:33:58;13.66;97.47
64997;SHT31;51545;51.568;6.998;2022-10-31T08:36:24;13.73;97.38
64997;SHT31;51545;51.568;6.998;2022-10-31T08:38:49;13.81;97.22
64997;SHT31;51545;51.568;6.998;2022-10-31T08:41:15;13.87;97.03
64997;SHT31;51545;51.568;6.998;2022-10-31T08:43:40;13.90;96.91
64997;SHT31;51545;51.568;6.998;2022-10-31T08:46:06;14.00;96.91
64997;SHT31;51545;51.568;6.998;2022-10-31T08:48:31;14.02;96.70
64997;SHT31;51545;51.568;6.998;2022-10-31T08:50:57;14.08;96.59
64997;SHT31;51545;51.568;6.998;2022-10-31T08:53:24;14.15;96.41
64997;SHT31;51545;51.568;6.998;2022-10-31T08:55:50;14.21;96.34
64997;SHT31;51545;51.568;6.998;2022-10-31T08:58:19;14.25;96.07
64997;SHT31;51545;51.568;6.998;2022-10-31T09:00:45;14.30;95.75
64997;SHT31;51545;51.568;6.998;2022-10-31T09:03:15;14.34;95.69
64997;SHT31;51545;51.568;6.998;2022-10-31T09:05:42;14.39;95.64
64997;SHT31;51545;51.568;6.998;2022-10-31T09:08:08;14.33;95.25
64997;SHT31;51545;51.568;6.998;2022-10-31T09:10:35;14.44;95.23
64997;SHT31;51545;51.568;6.998;2022-10-31T09:13:02;14.49;94.77
64997;SHT31;51545;51.568;6.998;2022-10-31T09:15:34;14.59;94.43
64997;SHT31;51545;51.568;6.998;2022-10-31T09:18:01;14.71;94.49
64997;SHT31;51545;51.568;6.998;2022-10-31T09:20:27;14.80;94.23
64997;SHT31;51545;51.568;6.998;2022-10-31T09:23:00;14.87;93.97
64997;SHT31;51545;51.568;6.998;2022-10-31T09:25:27;14.98;93.54
64997;SHT31;51545;51.568;6.998;2022-10-31T09:27:57;15.09;93.19
64997;SHT31;51545;51.568;6.998;2022-10-31T09:30:23;15.19;92.51
64997;SHT31;51545;51.568;6.998;2022-10-31T09:32:59;15.29;92.40
64997;SHT31;51545;51.568;6.998;2022-10-31T09:35:29;15.44;92.23
64997;SHT31;51545;51.568;6.998;2022-10-31T09:37:58;15.59;91.88
64997;SHT31;51545;51.568;6.998;2022-10-31T09:44:23;15.71;91.22
64997;SHT31;51545;51.568;6.998;2022-10-31T09:46:58;15.75;91.05
64997;SHT31;51545;51.568;6.998;2022-10-31T09:52:34;15.95;90.69
64997;SHT31;51545;51.568;6.998;2022-10-31T09:55:08;15.99;90.57
64997;SHT31;51545;51.568;6.998;2022-10-31T09:58:15;16.02;89.56
64997;SHT31;51545;51.568;6.998;2022-10-31T10:00:45;16.02;89.93
64997;SHT31;51545;51.568;6.998;2022-10-31T10:06:18;15.98;89.45
64997;SHT31;51545;51.568;6.998;2022-10-31T10:08:47;16.02;89.27
64997;SHT31;51545;51.568;6.998;2022-10-31T10:14:03;16.05;88.96
64997;SHT31;51545;51.568;6.998;2022-10-31T10:30:46;17.70;84.60
64997;SHT31;51545;51.568;6.998;2022-10-31T10:33:17;17.91;83.93
64997;SHT31;51545;51.568;6.998;2022-10-31T10:35:55;17.98;83.26
64997;SHT31;51545;51.568;6.998;2022-10-31T10:41:09;18.46;81.37
64997;SHT31;51545;51.568;6.998;2022-10-31T10:43:41;18.40;80.90
64997;SHT31;51545;51.568;6.998;2022-10-31T10:46:16;18.18;80.93
64997;SHT31;51545;51.568;6.998;2022-10-31T10:59:37;17.77;82.41
64997;SHT31;51545;51.568;6.998;2022-10-31T11:02:03;17.64;82.94
64997;SHT31;51545;51.568;6.998;2022-10-31T11:09:28;17.49;83.31
64997;SHT31;51545;51.568;6.998;2022-10-31T11:11:54;17.49;83.84
64997;SHT31;51545;51.568;6.998;2022-10-31T11:14:20;17.49;83.12
64997;SHT31;51545;51.568;6.998;2022-10-31T11:16:50;17.63;83.74
64997;SHT31;51545;51.568;6.998;2022-10-31T11:19:20;17.89;83.31
64997;SHT31;51545;51.568;6.998;2022-10-31T11:21:48;17.88;82.22
64997;SHT31;51545;51.568;6.998;2022-10-31T11:24:17;18.22;83.20
64997;SHT31;51545;51.568;6.998;2022-10-31T11:26:45;18.39;81.82
64997;SHT31;51545;51.568;6.998;2022-10-31T11:29:20;18.20;81.46
64997;SHT31;51545;51.568;6.998;2022-10-31T11:31:50;18.37;80.95
64997;SHT31;51545;51.568;6.998;2022-10-31T11:36:52;18.04;80.96
64997;SHT31;51545;51.568;6.998;2022-10-31T11:39:19;17.99;81.45
64997;SHT31;51545;51.568;6.998;2022-10-31T11:41:47;17.82;81.31
64997;SHT31;51545;51.568;6.998;2022-10-31T11:44:21;17.75;82.02
64997;SHT31;51545;51.568;6.998;2022-10-31T11:46:57;18.08;81.51
64997;SHT31;51545;51.568;6.998;2022-10-31T11:49:35;18.49;80.36
64997;SHT31;51545;51.568;6.998;2022-10-31T11:52:05;18.65;79.33
64997;SHT31;51545;51.568;6.998;2022-10-31T11:54:40;18.85;79.58
64997;SHT31;51545;51.568;6.998;2022-10-31T12:00:26;18.81;79.75
64997;SHT31;51545;51.568;6.998;2022-10-31T12:03:04;18.92;79.86
64997;SHT31;51545;51.568;6.998;2022-10-31T12:05:36;18.87;79.44
64997;SHT31;51545;51.568;6.998;2022-10-31T12:08:04;18.94;79.81
64997;SHT31;51545;51.568;6.998;2022-10-31T12:13:58;18.65;79.86
64997;SHT31;51545;51.568;6.998;2022-10-31T12:17:28;18.59;80.09
64997;SHT31;51545;51.568;6.998;2022-10-31T12:20:06;18.44;80.09
64997;SHT31;51545;51.568;6.998;2022-10-31T12:44:47;18.68;80.70
64997;SHT31;51545;51.568;6.998;2022-10-31T12:50:25;18.82;79.81
64997;SHT31;51545;51.568;6.998;2022-10-31T12:56:18;19.23;78.51
64997;SHT31;51545;51.568;6.998;2022-10-31T13:01:54;19.35;78.35
64997;SHT31;51545;51.568;6.998;2022-10-31T13:04:42;19.40;78.08
64997;SHT31;51545;51.568;6.998;2022-10-31T13:07:22;19.57;77.33
64997;SHT31;51545;51.568;6.998;2022-10-31T13:10:03;19.72;77.08
64997;SHT31;51545;51.568;6.998;2022-10-31T13:12:39;20.06;76.72
64997;SHT31;51545;51.568;6.998;2022-10-31T13:15:26;20.23;75.29
64997;SHT31;51545;51.568;6.998;2022-10-31T13:17:55;20.48;74.46
64997;SHT31;51545;51.568;6.998;2022-10-31T13:20:24;20.64;74.00
64997;SHT31;51545;51.568;6.998;2022-10-31T13:22:55;20.65;73.76
64997;SHT31;51545;51.568;6.998;2022-10-31T13:25:31;20.43;74.66
64997;SHT31;51545;51.568;6.998;2022-10-31T13:28:04;20.13;75.71
64997;SHT31;51545;51.568;6.998;2022-10-31T13:30:38;20.10;76.20
64997;SHT31;51545;51.568;6.998;2022-10-31T13:35:46;19.68;76.77
64997;SHT31;51545;51.568;6.998;2022-10-31T13:38:44;19.49;77.33
64997;SHT31;51545;51.568;6.998;2022-10-31T13:44:25;19.19;78.52
64997;SHT31;51545;51.568;6.998;2022-10-31T13:46:53;19.20;78.36
64997;SHT31;51545;51.568;6.998;2022-10-31T13:54:36;19.82;77.40
64997;SHT31;51545;51.568;6.998;2022-10-31T13:57:07;19.88;76.73
64997;SHT31;51545;51.568;6.998;2022-10-31T13:59:56;19.88;76.99
64997;SHT31;51545;51.568;6.998;2022-10-31T14:02:26;19.98;76.57
64997;SHT31;51545;51.568;6.998;2022-10-31T14:04:56;20.05;76.71
64997;SHT31;51545;51.568;6.998;2022-10-31T14:07:24;19.71;77.01
64997;SHT31;51545;51.568;6.998;2022-10-31T14:10:25;19.75;76.83
64997;SHT31;51545;51.568;6.998;2022-10-31T14:12:51;19.58;77.39
64997;SHT31;51545;51.568;6.998;2022-10-31T14:17:54;19.63;78.15
64997;SHT31;51545;51.568;6.998;2022-10-31T14:20:23;19.58;77.71
64997;SHT31;51545;51.568;6.998;2022-10-31T14:22:56;19.68;78.24
64997;SHT31;51545;51.568;6.998;2022-10-31T14:27:49;19.67;77.85
64997;SHT31;51545;51.568;6.998;2022-10-31T14:30:17;19.55;77.86
64997;SHT31;51545;51.568;6.998;2022-10-31T14:32:47;19.53;78.97
64997;SHT31;51545;51.568;6.998;2022-10-31T14:35:18;19.39;78.58
64997;SHT31;51545;51.568;6.998;2022-10-31T14:51:36;19.19;80.08
64997;SHT31;51545;51.568;6.998;2022-10-31T14:54:06;19.12;79.91
64997;SHT31;51545;51.568;6.998;2022-10-31T14:56:40;19.01;80.32
64997;SHT31;51545;51.568;6.998;2022-10-31T14:59:14;18.89;80.32
64997;SHT31;51545;51.568;6.998;2022-10-31T15:01:49;18.82;81.20
64997;SHT31;51545;51.568;6.998;2022-10-31T15:04:37;18.75;81.67
64997;SHT31;51545;51.568;6.998;2022-10-31T15:07:10;18.61;81.92
64997;SHT31;51545;51.568;6.998;2022-10-31T15:09:41;18.70;82.00
64997;SHT31;51545;51.568;6.998;2022-10-31T15:14:50;18.63;81.46
64997;SHT31;51545;51.568;6.998;2022-10-31T15:17:16;18.71;82.33
64997;SHT31;51545;51.568;6.998;2022-10-31T15:19:42;18.57;82.38
64997;SHT31;51545;51.568;6.998;2022-10-31T15:22:19;18.50;82.15
64997;SHT31;51545;51.568;6.998;2022-10-31T15:24:47;18.39;83.33
64997;SHT31;51545;51.568;6.998;2022-10-31T15:27:15;18.43;82.62
64997;SHT31;51545;51.568;6.998;2022-10-31T15:29:48;18.40;82.79
64997;SHT31;51545;51.568;6.998;2022-10-31T15:32:19;18.30;83.00
64997;SHT31;51545;51.568;6.998;2022-10-31T15:34:52;18.29;83.84
64997;SHT31;51545;51.568;6.998;2022-10-31T15:37:20;18.30;83.43
64997;SHT31;51545;51.568;6.998;2022-10-31T15:39:47;18.26;83.34
64997;SHT31;51545;51.568;6.998;2022-10-31T15:42:18;18.23;83.76
64997;SHT31;51545;51.568;6.998;2022-10-31T15:44:59;18.20;83.98
64997;SHT31;51545;51.568;6.998;2022-10-31T15:47:34;18.13;84.27
64997;SHT31;51545;51.568;6.998;2022-10-31T15:50:00;18.10;84.27
64997;SHT31;51545;51.568;6.998;2022-10-31T15:55:05;17.95;84.72
64997;SHT31;51545;51.568;6.998;2022-10-31T15:57:47;17.91;84.94
64997;SHT31;51545;51.568;6.998;2022-10-31T16:02:47;17.70;86.01
64997;SHT31;51545;51.568;6.998;2022-10-31T16:05:16;17.57;86.47
64997;SHT31;51545;51.568;6.998;2022-10-31T16:07:50;17.46;86.70
64997;SHT31;51545;51.568;6.998;2022-10-31T16:10:25;17.36;87.23
64997;SHT31;51545;51.568;6.998;2022-10-31T16:12:52;17.26;87.24
64997;SHT31;51545;51.568;6.998;2022-10-31T16:15:19;17.25;87.74
64997;SHT31;51545;51.568;6.998;2022-10-31T16:17:49;17.15;87.93
64997;SHT31;51545;51.568;6.998;2022-10-31T16:20:18;17.01;88.24
64997;SHT31;51545;51.568;6.998;2022-10-31T16:22:47;16.89;88.66
64997;SHT31;51545;51.568;6.998;2022-10-31T16:25:25;16.85;88.70
64997;SHT31;51545;51.568;6.998;2022-10-31T16:27:53;16.77;89.04
64997;SHT31;51545;51.568;6.998;2022-10-31T16:30:34;16.80;89.16
64997;SHT31;51545;51.568;6.998;2022-10-31T16:35:49;16.63;89.59
64997;SHT31;51545;51.568;6.998;2022-10-31T16:38:15;16.64;89.73
64997;SHT31;51545;51.568;6.998;2022-10-31T16:40:40;16.67;89.86
64997;SHT31;51545;51.568;6.998;2022-10-31T16:43:13;16.61;89.73
64997;SHT31;51545;51.568;6.998;2022-10-31T16:45:42;16.70;89.49
64997;SHT31;51545;51.568;6.998;2022-10-31T16:48:11;16.70;89.52
64997;SHT31;51545;51.568;6.998;2022-10-31T16:50:40;16.71;89.31
64997;SHT31;51545;51.568;6.998;2022-10-31T16:53:08;16.71;89.02
64997;SHT31;51545;51.568;6.998;2022-10-31T16:55:34;16.68;89.17
64997;SHT31;51545;51.568;6.998;2022-10-31T16:58:06;16.68;89.39
64997;SHT31;51545;51.568;6.998;2022-10-31T17:00:38;16.63;89.18
64997;SHT31;51545;51.568;6.998;2022-10-31T17:03:03;16.63;88.93
64997;SHT31;51545;51.568;6.998;2022-10-31T17:05:29;16.63;88.94
64997;SHT31;51545;51.568;6.998;2022-10-31T17:07:57;16.63;89.06
64997;SHT31;51545;51.568;6.998;2022-10-31T17:10:22;16.67;88.77
64997;SHT31;51545;51.568;6.998;2022-10-31T17:12:48;16.63;88.88
64997;SHT31;51545;51.568;6.998;2022-10-31T17:15:16;16.59;88.89
64997;SHT31;51545;51.568;6.998;2022-10-31T17:17:44;16.60;88.40
64997;SHT31;51545;51.568;6.998;2022-10-31T17:20:20;16.65;87.93
64997;SHT31;51545;51.568;6.998;2022-10-31T17:22:48;16.67;87.71
64997;SHT31;51545;51.568;6.998;2022-10-31T17:25:18;16.65;87.81
64997;SHT31;51545;51.568;6.998;2022-10-31T17:27:47;16.57;87.89
64997;SHT31;51545;51.568;6.998;2022-10-31T17:30:13;16.56;87.53
64997;SHT31;51545;51.568;6.998;2022-10-31T17:32:39;16.59;87.65
64997;SHT31;51545;51.568;6.998;2022-10-31T17:35:06;16.64;86.99
64997;SHT31;51545;51.568;6.998;2022-10-31T17:37:35;16.68;86.57
64997;SHT31;51545;51.568;6.998;2022-10-31T17:40:01;16.77;85.77
64997;SHT31;51545;51.568;6.998;2022-10-31T17:42:26;16.77;86.23
64997;SHT31;51545;51.568;6.998;2022-10-31T17:44:52;16.77;86.37
64997;SHT31;51545;51.568;6.998;2022-10-31T17:47:17;16.70;86.68
64997;SHT31;51545;51.568;6.998;2022-10-31T17:49:43;16.53;87.22
64997;SHT31;51545;51.568;6.998;2022-10-31T17:52:08;16.50;87.43
64997;SHT31;51545;51.568;6.998;2022-10-31T17:54:33;16.47;87.16
64997;SHT31;51545;51.568;6.998;2022-10-31T17:56:59;16.44;86.99
64997;SHT31;51545;51.568;6.998;2022-10-31T17:59:24;16.42;87.01
64997;SHT31;51545;51.568;6.998;2022-10-31T18:01:52;16.35;87.14
64997;SHT31;51545;51.568;6.998;2022-10-31T18:04:18;16.29;87.15
64997;SHT31;51545;51.568;6.998;2022-10-31T18:06:43;16.24;87.12
64997;SHT31;51545;51.568;6.998;2022-10-31T18:09:09;16.19;86.88
64997;SHT31;51545;51.568;6.998;2022-10-31T18:11:35;16.15;87.01
64997;SHT31;51545;51.568;6.998;2022-10-31T18:14:00;16.09;86.95